Licenciado Adolfo Lopez Mateos International Airport
MMTO : now visible

Airfield :











YOU CAN JOIN US ON...

 
LOGIN :

Register | Disclaimer

   EN    FR    IT 

 









Legend :    VFR   Marginal VFR   IFR   Intensive IFR   Very Intensive IFR
Visi :
Ceiling :
>= 8 km
>= 3000ft
5 to 8 km
1000 to 3000 ft
1500m to 5 km
500 to 1000 ft
800 to 1500m
200 to 500 ft
< 800m
< 200 ft
Symbols :   Thunderstorms  Fog  Heavy snow  Heavy precipitations  Wind > 20 kt







- Airport Elevation : 8466 ft
- IATA code : TLC


MMTO - Licenciado Adolfo Lopez Mateos International

CURRENT METAR :
  • 221849Z 19004KT 6SM BKN015 24/M01 A3027 RMK 8/100 HZY

EXPIRED METARs :
  • 221747Z 09003KT 6SM SCT015 25/01 A3030 RMK SLP026 57005 908 8/100 HZY
  • 221647Z 21005KT 6SM FEW015 23/03 A3032 RMK 8/100 HZY FU

TAF COR TAF MMTO
Valid from the 22 at 18:00 until the 24 at 00:00 UTC


221857Z 2218/2324 20010KT 5SM HZ BKN015 TX25/2221Z TN08/2312Z
FM222100 20012KT 5SM VC TSRA BKN015CB
TEMPO 2222/2301 3SM TSRA
FM230200 00000KT 5SM HZ SCT015
FM231200 00000KT 2SM BR HZ SKC
FM231600 00000KT 5SM HZ SCT015
PROB40 2320/2324 4SM TSRA BKN015CB
MMFR FIR / North America



MET'MAP, your aeronautical weather chart ! - Copyright ORBIFLY December 2007 - Disclaimer

ORBIFLY MET'MAP TEAM :

Programming & Development : Alexandra Zaïnal
Concept & Development : Baudouin d'Aumeries
Co-Development & Prog : Marc-Olivier Méhu
Technical & hardware support : Manuel Goepfert

Contact : metmap@orbifly.com




SOURCES & CREDITS :

   NOAA       Earth
Advisory